Lazaropole, Macedonia
Current Conditions -  °F | °C
As of 5:00 PM on Tuesday 25 Nov 2014 (Local Time) from LWOH Reporting Station
Clear Clear  
Wind Chill: 40°   Ceiling: Unl
Heat Index: 43°   Visibility: 6mi
Dew Point: 32°   Wind: 5mph
Humidity: 66%   Direction: 140°SE
Pressure: 30.15"   Gusts: NA
Location:  41.53°N, 20.7°E
Report Text: LWOH 251500Z 14004KT CAVOK 06/00 Q1021
Loading
Personal Weather Stations






























Interactive Weather Map New forecast layout! Learn more

10-Day Weather Forecast

Advertisements
Track Severe Weather on mobile